Terminal Aerodrome Forecast
Issued by NWS Spokane, WA

Home | Current Version | Previous Version | Text Only | Print | Product List | Glossary On
Versions: 1 2 3 4 5 6 7 8 9 10 11 12
000
FTUS46 KOTX 241139
TAFLWS
TAF
KLWS 241139Z 2412/2512 28012G20KT P6SM FEW060
     FM241800 29015G25KT P6SM FEW060
     FM242300 29012G20KT P6SM FEW060 BKN100
     FM250300 26008KT P6SM SCT070 SCT120 BKN150=

USA.gov is the U.S. government's official web portal to all federal, state and local government web resources and services.